Airfield :
LOGIN :

Register | Disclaimer

   EN    FR    IT 

 










Legend :    VFR   Marginal VFR   IFR   Intensive IFR   Very Intensive IFR
Visi :
Ceiling :
>= 8 km
>= 3000ft
5 to 8 km
1000 to 3000 ft
1500m to 5 km
500 to 1000 ft
800 to 1500m
200 to 500 ft
< 800m
< 200 ft
Symbols :   Thunderstorms  Fog  Heavy snow  Heavy precipitations  Wind > 20 kt
SIGMETs :     Misc.  Thunderstorms  Icing  Turbulence  Mountain Waves  Volcanic Ashes






- Airport Elevation : 1585 ft
- IATA code : SIR


LSGS - Sion

CURRENT METAR :
  • 200320Z AUTO VRB02KT 9999 FEW022 SCT075 05/04 Q1014

EXPIRED METARs :
  • 200250Z AUTO 09004KT 060V140 9999 SCT014 SCT017 05/04 Q1014
  • 200220Z AUTO VRB02KT 9999 FEW070 06/04 Q1014
  • 200150Z AUTO 25004KT 210V280 9999 -DZ NCD 06/04 Q1014
  • 200120Z AUTO VRB03KT 9999 -RA BKN021 06/04 Q1014
  • 200050Z AUTO 25006KT 9999 -RA BKN/// 06/04 Q1014
  • 200020Z AUTO 26011KT 9999 -RA BKN022 06/04 Q1014
  • 192350Z AUTO VRB02KT 9999 RA BKN029 06/04 Q1014
  • 192320Z AUTO 27005KT 250V310 9999 RA BKN037 06/05 Q1014

TAF TAF LSGS
Valid from the 20 at 03:00 until the 20 at 12:00 UTC


200225Z 2003/2012 25008KT 9999 SHRA BKN040



MET'MAP, your aeronautical weather chart ! - Copyright ORBIFLY December 2007 - Disclaimer

ORBIFLY MET'MAP TEAM :

Programming & Development : Alexandra Zaïnal
Original concept : Baudouin d'Aumeries
Technical & hardware support : Manuel Goepfert
Assistance : Marc-Olivier Méhu




SOURCES & CREDITS :

   NOAA